Time;durP1;ratioP1;P1;durP2;ratioP2;P2;SDS_P1;SDS_P2;PMS_P1;PMS_P2;Temp;Humidity;BMP_temperature;BMP_pressure;BME280_temperature;BME280_humidity;BME280_pressure;Samples;Min_cycle;Max_cycle;Signal;HPM_P1;HPM_P2
2022/03/08 00:00:57;;;;;;;20.63;12.50;;;0.80;1.00;;;;;;5080732;28;20519;-67
2022/03/08 00:03:24;;;;;;;18.07;12.80;;;1.00;1.00;;;;;;5090742;28;20476;-68
2022/03/08 00:05:51;;;;;;;18.37;11.90;;;0.80;1.00;;;;;;5091637;28;20798;-68
2022/03/08 00:08:18;;;;;;;20.97;12.67;;;0.60;1.00;;;;;;5091301;28;20445;-69
2022/03/08 00:10:45;;;;;;;16.87;11.90;;;0.60;1.00;;;;;;5090455;28;20502;-68
2022/03/08 00:13:12;;;;;;;21.47;12.07;;;0.60;1.00;;;;;;5091188;28;20450;-68
2022/03/08 00:15:39;;;;;;;17.73;11.27;;;0.60;1.00;;;;;;5089392;28;20528;-68
2022/03/08 00:18:07;;;;;;;18.37;12.60;;;0.40;2.50;;;;;;5091298;28;20451;-68
2022/03/08 00:20:35;;;;;;;18.67;13.40;;;0.60;3.70;;;;;;5090196;28;20493;-68
2022/03/08 00:23:02;;;;;;;22.47;12.43;;;0.30;4.00;;;;;;5094914;28;20451;-68
2022/03/08 00:25:30;;;;;;;21.70;12.10;;;0.20;5.80;;;;;;5096222;28;20456;-68
2022/03/08 00:27:57;;;;;;;18.67;11.37;;;0.30;8.30;;;;;;5097042;28;20942;-68
2022/03/08 00:30:52;;;;;;;19.33;12.23;;;0.40;10.60;;;;;;5097052;28;20535;-68
2022/03/08 00:33:20;;;;;;;19.73;12.67;;;0.30;9.00;;;;;;5087724;28;20502;-68
2022/03/08 00:35:48;;;;;;;19.40;12.30;;;0.40;10.30;;;;;;5096196;28;20499;-68
2022/03/08 00:38:15;;;;;;;18.27;13.17;;;0.50;8.30;;;;;;5097266;28;20483;-67
2022/03/08 00:40:42;;;;;;;20.13;13.00;;;0.40;11.50;;;;;;5095402;28;21033;-68
2022/03/08 00:43:09;;;;;;;19.30;13.00;;;0.20;15.90;;;;;;5097301;28;20458;-68
2022/03/08 00:45:36;;;;;;;17.67;13.97;;;0.10;18.80;;;;;;5095934;28;20515;-67
2022/03/08 00:48:04;;;;;;;22.47;11.67;;;0.00;25.90;;;;;;5097302;28;20484;-67
2022/03/08 00:50:33;;;;;;;19.60;12.90;;;0.30;24.60;;;;;;5085497;28;20447;-67
2022/03/08 00:53:00;;;;;;;16.40;11.60;;;0.40;22.70;;;;;;5097500;28;20444;-67
2022/03/08 00:55:30;;;;;;;25.80;12.90;;;0.40;20.20;;;;;;5096924;28;20448;-68
2022/03/08 00:57:57;;;;;;;19.20;13.13;;;0.30;25.30;;;;;;5097392;28;20461;-67
2022/03/08 01:00:27;;;;;;;21.80;13.60;;;0.30;24.60;;;;;;5096503;28;20797;-68
2022/03/08 01:02:54;;;;;;;16.97;11.47;;;0.30;26.40;;;;;;5097049;28;20451;-68
2022/03/08 01:05:22;;;;;;;18.20;10.97;;;0.00;26.40;;;;;;5097601;28;20450;-68
2022/03/08 01:07:50;;;;;;;18.67;12.20;;;0.00;32.30;;;;;;5096776;28;20477;-67
2022/03/08 01:10:19;;;;;;;18.57;11.83;;;-0.10;42.60;;;;;;5097181;28;20466;-67
2022/03/08 01:12:47;;;;;;;19.30;12.93;;;-0.20;39.70;;;;;;5096454;28;20483;-68
2022/03/08 01:15:15;;;;;;;18.73;12.20;;;0.10;41.50;;;;;;5096757;28;20458;-67
2022/03/08 01:17:44;;;;;;;19.27;11.90;;;0.10;40.80;;;;;;5096200;28;20513;-68
2022/03/08 01:20:12;;;;;;;15.50;10.60;;;-0.10;41.40;;;;;;5096575;28;20525;-67
2022/03/08 01:22:39;;;;;;;18.10;12.20;;;-0.20;50.90;;;;;;5095746;28;20450;-67
2022/03/08 01:25:09;;;;;;;21.23;13.40;;;0.00;56.10;;;;;;5096627;28;20445;-67
2022/03/08 01:27:36;;;;;;;18.13;11.93;;;-0.10;57.80;;;;;;5095774;28;20482;-67
2022/03/08 01:30:05;;;;;;;16.33;11.93;;;-0.20;62.60;;;;;;5096733;28;20448;-67
2022/03/08 01:32:32;;;;;;;21.37;11.50;;;-0.30;60.30;;;;;;5095556;28;20450;-67
2022/03/08 01:34:59;;;;;;;17.90;11.80;;;-0.40;59.50;;;;;;5094268;28;20937;-67
2022/03/08 01:37:26;;;;;;;18.00;11.53;;;-0.40;74.30;;;;;;5092827;28;20452;-67
2022/03/08 01:39:53;;;;;;;17.90;11.10;;;-0.40;78.60;;;;;;5093941;28;20829;-67
2022/03/08 01:42:25;;;;;;;18.53;11.63;;;-0.60;73.20;;;;;;5093517;28;20534;-67
2022/03/08 01:44:54;;;;;;;19.40;11.40;;;-0.70;96.60;;;;;;5093648;28;20445;-68
2022/03/08 01:47:25;;;;;;;15.43;11.00;;;-0.70;99.90;;;;;;5093733;28;20796;-68
2022/03/08 01:49:54;;;;;;;17.70;11.33;;;-0.80;99.90;;;;;;5093708;28;20455;-67
2022/03/08 01:52:23;;;;;;;22.20;10.87;;;-0.50;99.90;;;;;;5086901;28;20444;-68
2022/03/08 01:54:50;;;;;;;23.43;11.73;;;-0.90;99.90;;;;;;5083764;28;20821;-68
2022/03/08 01:57:19;;;;;;;18.50;10.87;;;-0.90;99.90;;;;;;5093745;28;20449;-67
2022/03/08 01:59:49;;;;;;;18.60;12.30;;;-0.60;99.90;;;;;;5092620;28;20450;-67
2022/03/08 02:02:15;;;;;;;18.17;10.87;;;-0.60;99.90;;;;;;5092323;28;20449;-68
2022/03/08 02:04:42;;;;;;;20.80;12.97;;;-0.70;99.90;;;;;;5092517;28;20586;-67
2022/03/08 02:07:10;;;;;;;17.67;13.60;;;-1.10;99.90;;;;;;5093159;28;20549;-67
2022/03/08 02:09:37;;;;;;;17.53;10.70;;;-1.00;99.90;;;;;;5092195;28;20922;-67
2022/03/08 02:12:04;;;;;;;18.03;11.00;;;-1.20;99.90;;;;;;5092597;28;20466;-67
2022/03/08 02:14:32;;;;;;;15.07;10.60;;;-1.30;99.90;;;;;;5091451;28;20532;-66
2022/03/08 02:17:00;;;;;;;20.87;11.77;;;-1.30;99.90;;;;;;5092329;28;20449;-68
2022/03/08 02:19:27;;;;;;;18.10;11.57;;;-0.90;99.90;;;;;;5091860;28;20500;-67
2022/03/08 02:21:55;;;;;;;15.77;10.10;;;-1.00;99.90;;;;;;5092609;28;20525;-67
2022/03/08 02:24:22;;;;;;;19.13;11.23;;;-1.30;99.90;;;;;;5092833;28;20471;-67
2022/03/08 02:26:50;;;;;;;16.87;11.77;;;-1.40;99.90;;;;;;5092489;28;20524;-67
2022/03/08 02:29:17;;;;;;;22.20;13.40;;;-1.00;99.90;;;;;;5084512;28;20461;-66
2022/03/08 02:31:47;;;;;;;16.20;11.23;;;-1.00;99.90;;;;;;5094907;28;20678;-67
2022/03/08 02:34:14;;;;;;;30.37;12.40;;;-1.00;99.90;;;;;;5094667;28;20494;-67
2022/03/08 02:36:42;;;;;;;12.93;9.57;;;-1.00;99.90;;;;;;5091759;28;20441;-67
2022/03/08 02:39:10;;;;;;;17.73;9.77;;;-1.00;99.90;;;;;;5092768;28;20471;-66
2022/03/08 02:41:37;;;;;;;15.13;10.07;;;-1.00;99.90;;;;;;5091611;28;20508;-66
2022/03/08 02:44:04;;;;;;;19.20;11.63;;;-1.30;99.90;;;;;;5091884;28;20451;-66
2022/03/08 02:46:31;;;;;;;18.40;10.47;;;-1.00;99.90;;;;;;5091203;28;20451;-66
2022/03/08 02:48:58;;;;;;;22.73;11.80;;;-0.80;99.90;;;;;;5092433;28;20509;-67
2022/03/08 02:51:25;;;;;;;19.50;12.27;;;-1.30;99.90;;;;;;5091005;28;20544;-68
2022/03/08 02:53:52;;;;;;;17.53;11.40;;;-1.40;99.90;;;;;;5092109;28;20484;-67
2022/03/08 02:56:21;;;;;;;19.90;11.77;;;-1.40;99.90;;;;;;5077633;28;20452;-67
2022/03/08 02:58:48;;;;;;;18.03;11.70;;;-1.30;99.90;;;;;;5092281;28;20449;-67
2022/03/08 03:01:15;;;;;;;18.63;10.80;;;-1.00;99.90;;;;;;5091404;28;20473;-67
2022/03/08 03:03:42;;;;;;;16.37;9.97;;;-0.80;99.90;;;;;;5090956;28;20883;-67
2022/03/08 03:06:09;;;;;;;16.67;11.17;;;-1.00;99.90;;;;;;5091942;28;20448;-68
2022/03/08 03:08:36;;;;;;;19.37;11.90;;;-1.10;99.90;;;;;;5091616;28;20448;-67
2022/03/08 03:11:03;;;;;;;19.27;10.60;;;-1.20;99.90;;;;;;5091518;28;20458;-67
2022/03/08 03:13:31;;;;;;;16.53;10.17;;;-1.20;99.90;;;;;;5090892;28;20450;-67
2022/03/08 03:15:58;;;;;;;19.30;10.50;;;-1.30;99.90;;;;;;5091548;28;20525;-67
2022/03/08 03:18:25;;;;;;;14.50;10.40;;;-1.50;99.90;;;;;;5091254;28;20448;-67
2022/03/08 03:20:52;;;;;;;14.70;10.17;;;-1.40;99.90;;;;;;5090736;28;20578;-66
2022/03/08 03:23:18;;;;;;;15.40;10.60;;;-1.70;99.90;;;;;;5090729;28;20476;-67
2022/03/08 03:25:45;;;;;;;17.47;12.10;;;-1.90;99.90;;;;;;5090936;28;20543;-67
2022/03/08 03:28:12;;;;;;;15.23;10.60;;;-1.40;99.90;;;;;;5091800;28;21287;-67
2022/03/08 03:30:41;;;;;;;16.43;10.20;;;-1.50;99.90;;;;;;5089650;28;20541;-67
2022/03/08 03:33:07;;;;;;;17.53;10.77;;;-1.40;99.90;;;;;;5091054;28;20870;-67
2022/03/08 03:35:34;;;;;;;18.30;10.60;;;-1.30;99.90;;;;;;5090382;28;20534;-66
2022/03/08 03:38:01;;;;;;;17.10;10.80;;;-1.50;99.90;;;;;;5091951;28;20441;-66
2022/03/08 03:40:28;;;;;;;18.43;11.13;;;-1.50;99.90;;;;;;5090321;28;20575;-67
2022/03/08 03:42:55;;;;;;;14.23;9.00;;;-1.60;99.90;;;;;;5091493;28;20819;-66
2022/03/08 03:45:22;;;;;;;14.70;10.73;;;-1.60;99.90;;;;;;5091472;28;20455;-66
2022/03/08 03:47:50;;;;;;;17.40;10.33;;;-1.60;99.90;;;;;;5091489;28;20484;-66
2022/03/08 03:50:17;;;;;;;18.80;12.67;;;-1.50;99.90;;;;;;5090770;28;20540;-66
2022/03/08 03:52:44;;;;;;;17.77;10.90;;;-1.50;99.90;;;;;;5090466;28;20441;-66
2022/03/08 03:55:12;;;;;;;17.17;10.47;;;-1.50;99.90;;;;;;5090666;28;20491;-67
2022/03/08 03:57:39;;;;;;;23.87;11.60;;;-1.60;99.90;;;;;;5082676;28;20938;-67
2022/03/08 04:00:08;;;;;;;17.47;10.30;;;-1.70;99.90;;;;;;5087234;28;20519;-66
2022/03/08 04:02:35;;;;;;;17.13;10.67;;;-1.80;99.90;;;;;;5089728;28;20515;-66
2022/03/08 04:05:04;;;;;;;17.20;11.30;;;-1.70;99.90;;;;;;5091127;28;20465;-66
2022/03/08 04:07:32;;;;;;;19.03;11.70;;;-1.60;99.90;;;;;;5090238;28;20449;-67
2022/03/08 04:09:58;;;;;;;17.47;11.03;;;-1.70;99.90;;;;;;5090858;28;20807;-66
2022/03/08 04:12:25;;;;;;;18.33;10.10;;;-1.90;1.00;;;;;;5089833;28;20479;-66
2022/03/08 04:14:52;;;;;;;17.83;11.50;;;-1.70;99.90;;;;;;5090792;28;20492;-67
2022/03/08 04:17:19;;;;;;;14.87;10.03;;;-1.50;99.90;;;;;;5090982;28;20448;-67
2022/03/08 04:19:46;;;;;;;14.77;9.10;;;-1.50;99.90;;;;;;5090098;28;20472;-66
2022/03/08 04:22:14;;;;;;;16.30;9.43;;;-1.60;99.90;;;;;;5089606;28;20490;-66
2022/03/08 04:24:41;;;;;;;19.00;10.20;;;-1.50;99.90;;;;;;5088545;28;20531;-66
2022/03/08 04:27:08;;;;;;;16.10;10.70;;;-1.90;99.90;;;;;;5090538;28;20527;-67
2022/03/08 04:29:35;;;;;;;15.47;9.60;;;-1.60;99.90;;;;;;5089492;28;20550;-66
2022/03/08 04:32:02;;;;;;;20.10;11.20;;;-1.50;99.90;;;;;;5089992;28;20527;-67
2022/03/08 04:34:29;;;;;;;16.50;10.27;;;-1.50;99.90;;;;;;5089978;28;20849;-67
2022/03/08 04:36:55;;;;;;;17.13;10.50;;;-1.30;99.90;;;;;;5090773;28;20476;-67
2022/03/08 04:39:24;;;;;;;14.27;10.30;;;-1.10;99.90;;;;;;5090901;28;20453;-67
2022/03/08 04:41:51;;;;;;;19.20;10.83;;;-1.20;99.90;;;;;;5090688;28;20574;-67
2022/03/08 04:44:18;;;;;;;16.77;10.73;;;-1.20;99.90;;;;;;5090272;28;20459;-67
2022/03/08 04:46:44;;;;;;;17.17;10.17;;;-1.20;99.90;;;;;;5089584;28;21304;-67
2022/03/08 04:49:11;;;;;;;13.20;10.67;;;-1.30;99.90;;;;;;5090636;28;20448;-67
2022/03/08 04:51:38;;;;;;;19.10;10.50;;;-1.10;99.90;;;;;;5088797;28;20462;-66
2022/03/08 04:54:05;;;;;;;13.70;10.00;;;-1.20;99.90;;;;;;5089713;28;20507;-66
2022/03/08 04:56:34;;;;;;;14.80;10.07;;;-1.10;99.90;;;;;;5089468;28;20471;-68
2022/03/08 04:59:01;;;;;;;15.30;10.37;;;-1.10;99.90;;;;;;5090797;28;20986;-66
2022/03/08 05:01:27;;;;;;;17.80;11.70;;;-1.40;99.90;;;;;;5089375;28;20488;-66
2022/03/08 05:03:54;;;;;;;17.80;12.40;;;-1.70;99.90;;;;;;5083976;28;20455;-66
2022/03/08 05:06:21;;;;;;;14.77;9.80;;;-2.10;1.00;;;;;;5090934;28;20477;-67
2022/03/08 05:08:48;;;;;;;19.10;10.10;;;-2.00;1.00;;;;;;5091757;28;20444;-67
2022/03/08 05:11:15;;;;;;;19.30;10.83;;;-2.10;99.90;;;;;;5093139;28;20548;-66
2022/03/08 05:13:45;;;;;;;17.07;9.70;;;-2.20;1.00;;;;;;5091249;28;20472;-68
2022/03/08 05:16:12;;;;;;;15.73;9.57;;;-2.20;1.00;;;;;;5093460;28;20815;-67
2022/03/08 05:18:39;;;;;;;22.50;11.30;;;-2.10;1.00;;;;;;5084579;28;20439;-67
2022/03/08 05:21:06;;;;;;;16.80;10.40;;;-1.80;1.00;;;;;;5093185;28;20479;-67
2022/03/08 05:23:33;;;;;;;16.53;10.60;;;-2.00;99.90;;;;;;5091661;28;20449;-67
2022/03/08 05:26:00;;;;;;;16.80;11.10;;;-1.90;1.00;;;;;;5091324;28;20959;-66
2022/03/08 05:28:26;;;;;;;16.40;10.60;;;-1.90;99.90;;;;;;5085928;28;20441;-68
2022/03/08 05:30:55;;;;;;;17.47;11.13;;;-1.80;1.00;;;;;;5091280;28;20528;-68
2022/03/08 05:33:22;;;;;;;14.67;10.30;;;-1.70;99.90;;;;;;5093829;28;20453;-68
2022/03/08 05:35:50;;;;;;;13.70;9.67;;;-1.70;1.00;;;;;;5093365;28;20484;-68
2022/03/08 05:38:17;;;;;;;18.97;11.33;;;-1.80;99.90;;;;;;5094416;28;20452;-67
2022/03/08 05:40:44;;;;;;;18.30;11.27;;;-1.80;1.00;;;;;;5089353;28;20441;-66
2022/03/08 05:43:11;;;;;;;18.00;12.20;;;-1.90;1.00;;;;;;5093978;28;20441;-67
2022/03/08 05:45:38;;;;;;;21.47;11.97;;;-1.90;1.00;;;;;;5093257;28;20523;-68
2022/03/08 05:48:06;;;;;;;14.83;9.97;;;-2.10;1.00;;;;;;5093541;28;20509;-68
2022/03/08 05:50:34;;;;;;;16.40;11.20;;;-2.30;1.00;;;;;;5092728;28;20510;-67
2022/03/08 05:53:00;;;;;;;18.67;11.00;;;-2.40;1.00;;;;;;5093510;28;20502;-67
2022/03/08 05:55:27;;;;;;;16.77;9.70;;;-2.30;1.00;;;;;;5092864;28;20527;-67
2022/03/08 05:57:54;;;;;;;17.10;11.23;;;-2.30;1.00;;;;;;5093740;28;20528;-68
2022/03/08 06:00:21;;;;;;;18.73;10.90;;;-2.40;1.00;;;;;;5079918;28;20547;-67
2022/03/08 06:02:48;;;;;;;19.37;11.77;;;-2.40;1.00;;;;;;5092521;28;20480;-67
2022/03/08 06:05:17;;;;;;;18.70;10.77;;;-2.20;1.00;;;;;;5093651;28;20443;-67
2022/03/08 06:07:43;;;;;;;17.20;10.13;;;-2.20;1.00;;;;;;5090567;28;21120;-67
2022/03/08 06:10:11;;;;;;;20.10;12.17;;;-2.10;1.00;;;;;;5092909;28;20531;-67
2022/03/08 06:12:38;;;;;;;16.10;9.47;;;-2.00;1.00;;;;;;5092663;28;20528;-67
2022/03/08 06:15:06;;;;;;;14.00;9.40;;;-2.20;1.00;;;;;;5094490;28;20452;-67
2022/03/08 06:17:33;;;;;;;16.87;10.40;;;-2.30;1.00;;;;;;5092829;28;20556;-67
2022/03/08 06:20:01;;;;;;;18.30;10.13;;;-2.30;1.00;;;;;;5093697;28;20508;-66
2022/03/08 06:22:29;;;;;;;17.70;9.87;;;-2.30;1.00;;;;;;5094477;28;20486;-67
2022/03/08 06:24:56;;;;;;;16.90;9.77;;;-2.20;1.00;;;;;;5095493;28;20950;-67
2022/03/08 06:27:23;;;;;;;31.03;10.90;;;-2.20;1.00;;;;;;5094076;28;20456;-67
2022/03/08 06:29:51;;;;;;;19.10;10.47;;;-2.10;1.00;;;;;;5095286;28;20453;-68
2022/03/08 06:32:18;;;;;;;14.97;8.87;;;-2.00;1.00;;;;;;5094014;28;20456;-66
2022/03/08 06:34:45;;;;;;;18.57;10.00;;;-1.80;1.00;;;;;;5092626;28;20462;-67
2022/03/08 06:37:13;;;;;;;12.23;8.60;;;-1.70;1.00;;;;;;5092419;28;20480;-68
2022/03/08 06:39:41;;;;;;;13.87;9.93;;;-1.60;1.00;;;;;;5092174;28;20948;-67
2022/03/08 06:42:08;;;;;;;17.43;10.07;;;-1.40;99.90;;;;;;5092959;28;20480;-66
2022/03/08 06:44:38;;;;;;;14.13;9.60;;;-1.20;99.90;;;;;;5092226;28;20459;-67
2022/03/08 06:47:06;;;;;;;12.30;9.43;;;-1.00;99.90;;;;;;5091932;28;20448;-67
2022/03/08 06:49:32;;;;;;;17.47;10.30;;;-0.90;99.90;;;;;;5092260;28;20460;-67
2022/03/08 06:51:59;;;;;;;15.20;8.83;;;-1.00;99.90;;;;;;5092578;28;20462;-68
2022/03/08 06:54:26;;;;;;;18.33;10.63;;;-0.90;99.90;;;;;;5091954;28;20562;-68
2022/03/08 06:56:54;;;;;;;18.17;10.60;;;-0.80;99.90;;;;;;5092083;28;20478;-68
2022/03/08 06:59:22;;;;;;;12.00;8.70;;;-0.90;99.90;;;;;;5092166;28;20532;-68
2022/03/08 07:01:49;;;;;;;15.33;8.20;;;-0.70;99.90;;;;;;5092107;28;20568;-67
2022/03/08 07:04:16;;;;;;;13.53;7.93;;;-0.60;99.90;;;;;;5092344;28;20943;-68
2022/03/08 07:06:43;;;;;;;12.50;8.67;;;-0.40;99.90;;;;;;5091490;28;20620;-68
2022/03/08 07:09:10;;;;;;;11.90;8.53;;;-0.40;99.90;;;;;;5091859;28;20532;-68
2022/03/08 07:11:37;;;;;;;13.33;8.57;;;-0.20;1.00;;;;;;5091214;28;20524;-67
2022/03/08 07:14:05;;;;;;;13.53;9.23;;;-0.10;99.90;;;;;;5092228;28;20535;-68
2022/03/08 07:16:32;;;;;;;10.93;7.70;;;0.00;99.90;;;;;;5090944;28;20853;-68
2022/03/08 07:19:00;;;;;;;14.20;9.07;;;0.10;99.90;;;;;;5091893;28;20983;-67
2022/03/08 07:21:27;;;;;;;13.70;8.67;;;0.20;99.90;;;;;;5091169;28;20468;-68
2022/03/08 07:23:53;;;;;;;14.60;8.90;;;0.10;99.90;;;;;;5091649;28;20477;-68
2022/03/08 07:26:20;;;;;;;11.40;7.93;;;0.30;99.90;;;;;;5091529;28;20451;-67
2022/03/08 07:28:47;;;;;;;14.90;8.80;;;0.40;99.90;;;;;;5090844;28;20451;-68
2022/03/08 07:31:16;;;;;;;11.63;8.50;;;0.50;99.90;;;;;;5091376;28;20530;-68
2022/03/08 07:33:43;;;;;;;12.17;7.53;;;0.50;99.90;;;;;;5091169;28;20445;-68
2022/03/08 07:36:10;;;;;;;17.27;7.57;;;0.90;99.90;;;;;;5091404;28;20476;-68
2022/03/08 07:38:37;;;;;;;11.40;9.20;;;0.80;99.90;;;;;;5090960;28;20507;-68
2022/03/08 07:41:04;;;;;;;14.10;8.23;;;1.00;99.90;;;;;;5091534;28;20481;-68
2022/03/08 07:43:32;;;;;;;10.30;7.60;;;1.00;99.90;;;;;;5091416;28;20486;-68
2022/03/08 07:45:59;;;;;;;14.73;7.87;;;1.00;99.90;;;;;;5091768;28;20458;-68
2022/03/08 07:48:27;;;;;;;14.27;7.73;;;1.10;99.90;;;;;;5090717;28;20448;-68
2022/03/08 07:50:54;;;;;;;11.70;8.00;;;1.30;99.90;;;;;;5091707;28;20920;-67
2022/03/08 07:53:21;;;;;;;9.53;7.40;;;1.40;99.90;;;;;;5091242;28;20569;-67
2022/03/08 07:55:48;;;;;;;12.53;8.50;;;1.50;99.90;;;;;;5091762;28;20450;-67
2022/03/08 07:58:15;;;;;;;12.53;7.20;;;1.70;99.90;;;;;;5091136;28;20882;-67
2022/03/08 08:00:43;;;;;;;14.93;6.70;;;1.90;99.90;;;;;;5090951;28;20758;-67
2022/03/08 08:03:10;;;;;;;11.33;8.33;;;2.00;99.90;;;;;;5091108;28;20491;-68
2022/03/08 08:05:39;;;;;;;11.37;7.43;;;2.20;99.90;;;;;;5090628;28;20454;-69
2022/03/08 08:08:07;;;;;;;12.50;8.27;;;2.20;99.90;;;;;;5091072;28;20446;-68
2022/03/08 08:10:35;;;;;;;14.90;7.27;;;2.40;99.90;;;;;;5090422;28;20855;-68
2022/03/08 08:13:02;;;;;;;10.63;7.00;;;2.50;99.90;;;;;;5090754;28;21045;-68
2022/03/08 08:15:29;;;;;;;8.20;6.10;;;2.60;99.90;;;;;;5089704;28;20448;-68
2022/03/08 08:17:56;;;;;;;8.97;6.07;;;2.70;99.90;;;;;;5090514;28;20939;-68
2022/03/08 08:20:23;;;;;;;8.17;6.37;;;2.80;99.90;;;;;;5090624;28;20937;-68
2022/03/08 08:22:51;;;;;;;7.20;6.10;;;2.90;99.00;;;;;;5090544;28;20518;-68
2022/03/08 08:25:18;;;;;;;8.00;6.00;;;3.00;97.40;;;;;;5090799;28;20444;-67
2022/03/08 08:27:45;;;;;;;7.60;6.80;;;3.00;93.90;;;;;;5090248;28;21105;-68
2022/03/08 08:30:12;;;;;;;14.00;7.40;;;3.00;93.50;;;;;;5091157;28;20457;-67
2022/03/08 08:32:40;;;;;;;9.23;6.90;;;3.20;92.50;;;;;;5089518;28;20540;-68
2022/03/08 08:35:07;;;;;;;16.40;6.97;;;3.30;90.80;;;;;;5090856;28;20898;-67
2022/03/08 08:37:34;;;;;;;9.33;6.00;;;3.30;87.20;;;;;;5089996;28;20494;-66
2022/03/08 08:40:04;;;;;;;11.07;6.67;;;3.40;84.90;;;;;;5091123;28;20481;-67
2022/03/08 08:42:30;;;;;;;8.17;6.30;;;3.40;83.60;;;;;;5089969;28;21071;-67
2022/03/08 08:44:57;;;;;;;7.40;6.37;;;3.40;78.60;;;;;;5094429;28;20949;-67
2022/03/08 08:47:24;;;;;;;8.83;6.07;;;3.40;74.70;;;;;;5094015;28;20867;-67
2022/03/08 08:49:51;;;;;;;7.17;6.53;;;3.60;72.60;;;;;;5094770;28;20456;-67
2022/03/08 08:52:18;;;;;;;8.80;6.00;;;3.60;70.30;;;;;;5094944;28;20448;-67
2022/03/08 08:54:47;;;;;;;9.13;6.23;;;3.70;68.00;;;;;;5094446;28;20477;-67
2022/03/08 08:57:15;;;;;;;7.40;6.07;;;3.80;65.10;;;;;;5094550;28;20445;-67
2022/03/08 08:59:42;;;;;;;10.90;6.40;;;3.90;64.70;;;;;;5093839;28;20448;-67
2022/03/08 09:02:10;;;;;;;8.47;6.30;;;4.10;59.90;;;;;;5094487;28;20487;-67
2022/03/08 09:04:37;;;;;;;6.80;6.03;;;4.20;55.70;;;;;;5093753;28;20449;-67
2022/03/08 09:07:04;;;;;;;11.13;4.67;;;4.30;53.90;;;;;;5094312;28;20898;-66
2022/03/08 09:09:31;;;;;;;10.90;6.00;;;4.30;47.80;;;;;;5093828;28;20444;-67
2022/03/08 09:11:58;;;;;;;7.60;5.30;;;4.40;45.60;;;;;;5094342;28;20941;-67
2022/03/08 09:14:27;;;;;;;10.23;6.70;;;;;;;;;;5093476;28;20531;-67
2022/03/08 09:16:54;;;;;;;6.90;5.23;;;;;;;;;;5093875;28;20448;-67
2022/03/08 09:19:21;;;;;;;7.97;5.10;;;;;;;;;;5094312;28;20517;-66
2022/03/08 09:21:49;;;;;;;7.23;5.97;;;;;;;;;;5093982;28;20467;-67
2022/03/08 09:24:16;;;;;;;5.73;4.87;;;;;;;;;;5094175;28;20537;-67
2022/03/08 09:26:44;;;;;;;8.30;5.70;;;;;;;;;;5093144;28;20455;-68
2022/03/08 09:29:11;;;;;;;5.60;4.80;;;;;;;;;;5094019;28;20437;-67
2022/03/08 09:31:39;;;;;;;5.70;4.80;;;;;;;;;;5092878;28;20536;-66
2022/03/08 09:34:07;;;;;;;6.43;4.90;;;;;;;;;;5093545;28;21028;-67
2022/03/08 09:36:34;;;;;;;5.70;4.20;;;;;;;;;;5092676;28;20445;-67
2022/03/08 09:39:01;;;;;;;8.10;5.10;;;;;;;;;;5093810;28;20453;-67
2022/03/08 09:41:28;;;;;;;8.23;5.10;;;;;;;;;;5093222;28;20451;-67
2022/03/08 09:43:56;;;;;;;5.77;4.70;;;;;;;;;;5093564;28;20580;-67
2022/03/08 09:46:23;;;;;;;6.87;4.30;;;;;;;;;;5093466;28;20491;-67
2022/03/08 09:48:51;;;;;;;6.07;5.30;;;;;;;;;;5093816;28;20441;-67
2022/03/08 09:51:19;;;;;;;9.50;5.73;;;;;;;;;;5094076;28;20494;-67
2022/03/08 09:53:46;;;;;;;6.50;5.20;;;;;;;;;;5093199;28;20834;-67
2022/03/08 09:56:14;;;;;;;6.67;5.03;;;;;;;;;;5092033;28;20451;-68
2022/03/08 09:58:41;;;;;;;7.57;4.77;;;;;;;;;;5093475;28;20455;-67
2022/03/08 10:01:08;;;;;;;6.23;4.83;;;;;;;;;;5093564;28;20919;-67
2022/03/08 10:03:38;;;;;;;10.80;5.83;;;;;;;;;;5092862;28;20486;-67
2022/03/08 10:06:07;;;;;;;8.33;6.50;;;;;;;;;;5093032;28;20447;-67
2022/03/08 10:08:35;;;;;;;5.30;4.30;;;;;;;;;;5079266;28;20543;-68
2022/03/08 10:11:03;;;;;;;7.30;5.03;;;;;;;;;;5093146;28;20984;-67
2022/03/08 10:13:32;;;;;;;8.37;5.17;;;;;;;;;;5092716;28;20800;-67
2022/03/08 10:16:10;;;;;;;6.30;5.57;;;;;;;;;;5092756;28;20494;-68
2022/03/08 10:18:38;;;;;;;6.70;5.37;;;;;;;;;;5092531;28;20449;-67
2022/03/08 10:21:11;;;;;;;7.17;4.53;;;;;;;;;;5093299;28;20456;-67
2022/03/08 10:23:41;;;;;;;6.13;4.93;;;;;;;;;;5092381;28;20907;-68
2022/03/08 10:26:12;;;;;;;8.03;5.20;;;;;;;;;;5093199;28;20481;-67
2022/03/08 10:28:45;;;;;;;8.00;5.50;;;;;;;;;;5093853;28;20514;-68
2022/03/08 10:31:14;;;;;;;6.80;4.90;;;;;;;;;;5094922;28;21077;-68
2022/03/08 10:33:41;;;;;;;6.07;4.70;;;;;;;;;;5091688;28;20456;-68
2022/03/08 10:36:15;;;;;;;6.07;4.50;;;;;;;;;;5092501;28;20512;-68
2022/03/08 10:38:42;;;;;;;8.23;5.07;;;;;;;;;;5092408;28;20444;-67
2022/03/08 10:41:19;;;;;;;5.67;4.77;;;;;;;;;;5092872;28;20540;-67
2022/03/08 10:43:49;;;;;;;10.30;5.50;;;;;;;;;;5092176;28;20506;-67
2022/03/08 10:46:17;;;;;;;6.73;4.70;;;;;;;;;;5092310;28;20532;-68
2022/03/08 10:48:47;;;;;;;6.47;4.73;;;;;;;;;;5092109;28;20442;-67
2022/03/08 10:51:15;;;;;;;5.73;4.20;;;;;;;;;;5092577;28;20513;-67
2022/03/08 10:53:43;;;;;;;6.63;4.60;;;;;;;;;;5091867;28;20476;-67
2022/03/08 10:56:10;;;;;;;8.63;4.20;;;;;;;;;;5092112;28;20509;-67
2022/03/08 10:58:49;;;;;;;7.77;4.80;;;;;;;;;;5091689;28;20959;-68
2022/03/08 11:01:16;;;;;;;5.07;4.20;;;;;;;;;;5092325;28;20998;-67
2022/03/08 11:03:55;;;;;;;16.30;5.67;;;;;;;;;;5091740;28;20484;-68
2022/03/08 11:06:24;;;;;;;8.37;5.70;;;;;;;;;;5091610;28;20441;-68
2022/03/08 11:08:52;;;;;;;5.70;5.10;;;;;;;;;;5091869;28;20480;-67
2022/03/08 11:11:20;;;;;;;7.20;4.87;;;;;;;;;;5092585;28;20440;-67
2022/03/08 11:13:50;;;;;;;6.93;4.40;;;;;;;;;;5091199;28;20463;-68
2022/03/08 11:16:18;;;;;;;7.13;4.53;;;;;;;;;;5091396;28;20455;-67
2022/03/08 11:18:46;;;;;;;6.03;4.27;;;;;;;;;;5091112;28;21041;-67
2022/03/08 11:21:14;;;;;;;6.80;4.17;;;;;;;;;;5092158;28;20457;-69
2022/03/08 11:23:44;;;;;;;5.93;4.23;;;;;;;;;;5091143;28;20484;-66
2022/03/08 11:26:11;;;;;;;6.53;4.77;;;;;;;;;;5091039;28;20444;-68
2022/03/08 11:28:40;;;;;;;6.60;4.40;;;;;;;;;;5091162;28;20445;-68
2022/03/08 11:31:07;;;;;;;5.43;4.20;;;;;;;;;;5091644;28;20475;-67
2022/03/08 11:33:40;;;;;;;6.10;5.50;;;;;;;;;;5090820;28;20531;-67
2022/03/08 11:36:10;;;;;;;5.63;4.50;;;;;;;;;;5078079;28;20471;-67
2022/03/08 11:38:37;;;;;;;8.30;5.20;;;;;;;;;;5091162;28;20536;-68
2022/03/08 11:41:05;;;;;;;5.10;4.00;;;;;;;;;;5091641;28;20528;-67
2022/03/08 11:43:44;;;;;;;5.23;3.80;;;;;;;;;;5090674;28;21021;-68
2022/03/08 11:46:13;;;;;;;6.80;4.60;;;;;;;;;;5091443;28;20448;-67
2022/03/08 11:48:50;;;;;;;5.90;4.03;;;;;;;;;;5090889;28;20449;-67
2022/03/08 11:51:18;;;;;;;8.67;4.77;;;;;;;;;;5091692;28;20452;-68
2022/03/08 11:53:47;;;;;;;8.97;5.17;;;;;;;;;;5090282;28;20534;-69
2022/03/08 11:56:18;;;;;;;7.23;4.80;;;;;;;;;;5091427;28;20464;-67
2022/03/08 11:58:49;;;;;;;5.87;4.33;;;;;;;;;;5091221;28;20937;-68
2022/03/08 12:01:23;;;;;;;5.30;4.80;;;;;;;;;;5091808;28;20476;-67
2022/03/08 12:03:55;;;;;;;5.97;3.87;;;;;;;;;;5081517;28;20560;-68
2022/03/08 12:06:30;;;;;;;6.63;3.90;;;;;;;;;;5091318;28;20444;-68
2022/03/08 12:09:01;;;;;;;4.87;4.33;;;;;;;;;;5091102;28;20917;-67
2022/03/08 12:11:35;;;;;;;5.30;4.80;;;;;;;;;;5090459;28;20528;-68
2022/03/08 12:14:17;;;;;;;7.23;4.67;;;;;;;;;;5091129;28;20448;-67
2022/03/08 12:16:46;;;;;;;4.60;4.20;;;;;;;;;;5087259;28;20461;-67
2022/03/08 12:19:14;;;;;;;4.93;4.43;;;;;;;;;;5089773;28;20806;-67
2022/03/08 12:21:43;;;;;;;9.07;5.50;;;;;;;;;;5090305;28;20913;-67
2022/03/08 12:24:17;;;;;;;4.83;4.33;;;;;;;;;;5090891;28;20561;-67
2022/03/08 12:26:56;;;;;;;6.43;4.53;;;;;;;;;;5089972;28;20432;-67
2022/03/08 12:29:24;;;;;;;5.00;4.37;;;;;;;;;;5090880;28;20547;-67
2022/03/08 12:32:09;;;;;;;8.10;4.83;;;;;;;;;;5090876;28;20455;-67
2022/03/08 12:34:39;;;;;;;16.30;5.43;;;;;;;;;;5086670;28;20509;-67
2022/03/08 12:37:07;;;;;;;10.03;5.50;;;;;;;;;;5090661;28;20507;-67
2022/03/08 12:39:47;;;;;;;7.97;5.97;;;;;;;;;;5090253;28;20448;-66
2022/03/08 12:42:19;;;;;;;7.57;5.23;;;;;;;;;;5090629;28;20964;-67
2022/03/08 12:44:51;;;;;;;8.43;4.93;;;;;;;;;;5090541;28;20484;-67
2022/03/08 12:47:18;;;;;;;6.57;5.13;;;;;;;;;;5090965;28;20463;-67
2022/03/08 12:49:46;;;;;;;8.30;6.30;;;;;;;;;;5090488;28;20535;-68
2022/03/08 12:52:14;;;;;;;6.87;5.63;;;;;;;;;;5090708;28;20917;-67
2022/03/08 12:54:42;;;;;;;13.50;5.67;;;;;;;;;;5090261;28;20829;-67
2022/03/08 12:57:11;;;;;;;6.80;5.60;;;;;;;;;;5090580;28;20445;-67
2022/03/08 12:59:44;;;;;;;8.50;5.80;;;;;;;;;;5090422;28;20440;-67
2022/03/08 13:02:12;;;;;;;10.60;4.93;;;;;;;;;;5078338;28;20451;-67
2022/03/08 13:04:39;;;;;;;8.70;5.90;;;;;;;;;;5090241;28;20487;-67
2022/03/08 13:07:07;;;;;;;7.73;5.73;;;;;;;;;;5090091;28;20869;-67
2022/03/08 13:09:48;;;;;;;8.43;5.87;;;;;;;;;;5089776;28;20459;-67
2022/03/08 13:12:19;;;;;;;6.80;5.17;;;;;;;;;;5090407;28;20527;-67
2022/03/08 13:15:01;;;;;;;12.70;6.27;;;;;;;;;;5089776;28;20480;-67